sensor_id;sensor_type;location;lat;lon;timestamp;temperature;humidity
25092;DHT22;13082;52.374;4.946;2023-07-20T00:01:44;18.40;99.90
25092;DHT22;13082;52.374;4.946;2023-07-20T00:04:11;18.40;99.90
25092;DHT22;13082;52.374;4.946;2023-07-20T00:06:37;18.40;99.90
25092;DHT22;13082;52.374;4.946;2023-07-20T00:09:06;18.40;99.90
25092;DHT22;13082;52.374;4.946;2023-07-20T00:11:36;18.40;99.90
25092;DHT22;13082;52.374;4.946;2023-07-20T00:14:01;18.50;99.90
25092;DHT22;13082;52.374;4.946;2023-07-20T00:16:27;18.50;99.90
25092;DHT22;13082;52.374;4.946;2023-07-20T00:18:53;18.50;99.90
25092;DHT22;13082;52.374;4.946;2023-07-20T00:21:18;18.60;99.90
25092;DHT22;13082;52.374;4.946;2023-07-20T00:23:45;18.60;99.90
25092;DHT22;13082;52.374;4.946;2023-07-20T00:26:10;18.40;99.90
25092;DHT22;13082;52.374;4.946;2023-07-20T00:28:36;18.50;99.90
25092;DHT22;13082;52.374;4.946;2023-07-20T00:31:02;18.50;99.90
25092;DHT22;13082;52.374;4.946;2023-07-20T00:33:28;18.50;99.90
25092;DHT22;13082;52.374;4.946;2023-07-20T00:35:54;18.50;99.90
25092;DHT22;13082;52.374;4.946;2023-07-20T00:38:19;18.50;99.90
25092;DHT22;13082;52.374;4.946;2023-07-20T00:40:46;18.50;99.90
25092;DHT22;13082;52.374;4.946;2023-07-20T00:43:11;18.40;99.90
25092;DHT22;13082;52.374;4.946;2023-07-20T00:45:38;18.40;99.90
25092;DHT22;13082;52.374;4.946;2023-07-20T00:48:04;18.40;99.90
25092;DHT22;13082;52.374;4.946;2023-07-20T00:50:31;18.40;99.90
25092;DHT22;13082;52.374;4.946;2023-07-20T00:52:57;18.30;99.90
25092;DHT22;13082;52.374;4.946;2023-07-20T00:55:24;18.40;99.90
25092;DHT22;13082;52.374;4.946;2023-07-20T00:57:50;18.30;99.90
25092;DHT22;13082;52.374;4.946;2023-07-20T01:00:16;18.30;99.90
25092;DHT22;13082;52.374;4.946;2023-07-20T01:02:42;18.30;99.90
25092;DHT22;13082;52.374;4.946;2023-07-20T01:05:08;18.30;99.90
25092;DHT22;13082;52.374;4.946;2023-07-20T01:10:29;18.40;99.90
25092;DHT22;13082;52.374;4.946;2023-07-20T01:12:57;18.40;99.90
25092;DHT22;13082;52.374;4.946;2023-07-20T01:15:23;18.30;99.90
25092;DHT22;13082;52.374;4.946;2023-07-20T01:17:48;18.30;99.90
25092;DHT22;13082;52.374;4.946;2023-07-20T01:20:16;18.20;99.90
25092;DHT22;13082;52.374;4.946;2023-07-20T01:26:03;18.10;99.90
25092;DHT22;13082;52.374;4.946;2023-07-20T01:29:01;18.10;99.90
25092;DHT22;13082;52.374;4.946;2023-07-20T01:31:36;18.20;99.90
25092;DHT22;13082;52.374;4.946;2023-07-20T01:34:03;18.20;99.90
25092;DHT22;13082;52.374;4.946;2023-07-20T01:36:34;18.10;99.90
25092;DHT22;13082;52.374;4.946;2023-07-20T01:39:00;18.00;99.90
25092;DHT22;13082;52.374;4.946;2023-07-20T01:41:30;18.10;99.90
25092;DHT22;13082;52.374;4.946;2023-07-20T01:43:58;18.10;99.90
25092;DHT22;13082;52.374;4.946;2023-07-20T01:46:27;18.10;99.90
25092;DHT22;13082;52.374;4.946;2023-07-20T01:48:53;18.10;99.90
25092;DHT22;13082;52.374;4.946;2023-07-20T01:51:19;18.10;99.90
25092;DHT22;13082;52.374;4.946;2023-07-20T01:53:45;17.90;99.90
25092;DHT22;13082;52.374;4.946;2023-07-20T01:56:10;17.90;99.90
25092;DHT22;13082;52.374;4.946;2023-07-20T01:58:37;17.90;99.90
25092;DHT22;13082;52.374;4.946;2023-07-20T02:01:03;17.90;99.90
25092;DHT22;13082;52.374;4.946;2023-07-20T02:03:29;17.90;99.90
25092;DHT22;13082;52.374;4.946;2023-07-20T02:05:55;18.00;99.90
25092;DHT22;13082;52.374;4.946;2023-07-20T02:08:22;17.90;99.90
25092;DHT22;13082;52.374;4.946;2023-07-20T02:10:48;17.90;99.90
25092;DHT22;13082;52.374;4.946;2023-07-20T02:13:14;18.00;99.90
25092;DHT22;13082;52.374;4.946;2023-07-20T02:15:41;18.00;99.90
25092;DHT22;13082;52.374;4.946;2023-07-20T02:18:08;18.00;99.90
25092;DHT22;13082;52.374;4.946;2023-07-20T02:20:34;17.90;99.90
25092;DHT22;13082;52.374;4.946;2023-07-20T02:23:00;17.90;99.90
25092;DHT22;13082;52.374;4.946;2023-07-20T02:25:25;17.90;99.90
25092;DHT22;13082;52.374;4.946;2023-07-20T02:27:51;17.80;99.90
25092;DHT22;13082;52.374;4.946;2023-07-20T02:30:17;17.90;99.90
25092;DHT22;13082;52.374;4.946;2023-07-20T02:32:43;18.00;99.90
25092;DHT22;13082;52.374;4.946;2023-07-20T02:35:14;18.10;99.90
25092;DHT22;13082;52.374;4.946;2023-07-20T02:37:40;18.10;99.90
25092;DHT22;13082;52.374;4.946;2023-07-20T02:40:06;18.00;99.90
25092;DHT22;13082;52.374;4.946;2023-07-20T02:42:33;18.10;99.90
25092;DHT22;13082;52.374;4.946;2023-07-20T02:44:59;18.10;99.90
25092;DHT22;13082;52.374;4.946;2023-07-20T02:47:24;18.10;99.90
25092;DHT22;13082;52.374;4.946;2023-07-20T02:49:50;17.90;99.90
25092;DHT22;13082;52.374;4.946;2023-07-20T02:52:16;17.80;99.90
25092;DHT22;13082;52.374;4.946;2023-07-20T02:54:41;17.90;99.90
25092;DHT22;13082;52.374;4.946;2023-07-20T02:57:07;17.80;99.90
25092;DHT22;13082;52.374;4.946;2023-07-20T02:59:33;17.70;99.90
25092;DHT22;13082;52.374;4.946;2023-07-20T03:01:58;17.70;99.90
25092;DHT22;13082;52.374;4.946;2023-07-20T03:04:27;17.80;99.90
25092;DHT22;13082;52.374;4.946;2023-07-20T03:06:53;17.90;99.90
25092;DHT22;13082;52.374;4.946;2023-07-20T03:09:18;17.80;99.90
25092;DHT22;13082;52.374;4.946;2023-07-20T03:11:44;17.80;99.90
25092;DHT22;13082;52.374;4.946;2023-07-20T03:14:09;17.90;99.90
25092;DHT22;13082;52.374;4.946;2023-07-20T03:16:36;17.90;99.90
25092;DHT22;13082;52.374;4.946;2023-07-20T03:19:02;18.00;99.90
25092;DHT22;13082;52.374;4.946;2023-07-20T03:21:27;18.00;99.90
25092;DHT22;13082;52.374;4.946;2023-07-20T03:23:54;18.10;99.90
25092;DHT22;13082;52.374;4.946;2023-07-20T03:26:19;18.10;99.90
25092;DHT22;13082;52.374;4.946;2023-07-20T03:28:45;18.10;99.90
25092;DHT22;13082;52.374;4.946;2023-07-20T03:31:11;18.10;99.90
25092;DHT22;13082;52.374;4.946;2023-07-20T03:33:37;18.10;99.90
25092;DHT22;13082;52.374;4.946;2023-07-20T03:36:03;18.00;99.90
25092;DHT22;13082;52.374;4.946;2023-07-20T03:38:28;18.00;99.90
25092;DHT22;13082;52.374;4.946;2023-07-20T03:40:55;18.00;99.90
25092;DHT22;13082;52.374;4.946;2023-07-20T03:43:25;18.00;99.90
25092;DHT22;13082;52.374;4.946;2023-07-20T03:45:51;17.90;99.90
25092;DHT22;13082;52.374;4.946;2023-07-20T03:48:19;17.90;99.90
25092;DHT22;13082;52.374;4.946;2023-07-20T03:50:47;17.90;99.90
25092;DHT22;13082;52.374;4.946;2023-07-20T03:53:14;18.00;99.90
25092;DHT22;13082;52.374;4.946;2023-07-20T03:55:41;17.90;99.90
25092;DHT22;13082;52.374;4.946;2023-07-20T03:58:07;17.90;99.90
25092;DHT22;13082;52.374;4.946;2023-07-20T04:00:34;17.90;99.90
25092;DHT22;13082;52.374;4.946;2023-07-20T04:02:59;18.00;99.90
25092;DHT22;13082;52.374;4.946;2023-07-20T04:05:25;18.00;99.90
25092;DHT22;13082;52.374;4.946;2023-07-20T04:07:51;18.10;99.90
25092;DHT22;13082;52.374;4.946;2023-07-20T04:10:17;18.10;99.90
25092;DHT22;13082;52.374;4.946;2023-07-20T04:12:43;18.10;99.90
25092;DHT22;13082;52.374;4.946;2023-07-20T04:15:09;18.10;99.90
25092;DHT22;13082;52.374;4.946;2023-07-20T04:17:35;18.10;99.90
25092;DHT22;13082;52.374;4.946;2023-07-20T04:20:00;18.10;99.90
25092;DHT22;13082;52.374;4.946;2023-07-20T04:22:26;17.90;99.90
25092;DHT22;13082;52.374;4.946;2023-07-20T04:24:52;17.80;99.90
25092;DHT22;13082;52.374;4.946;2023-07-20T04:27:18;17.80;99.90
25092;DHT22;13082;52.374;4.946;2023-07-20T04:29:43;17.70;99.90
25092;DHT22;13082;52.374;4.946;2023-07-20T04:32:09;17.70;99.90
25092;DHT22;13082;52.374;4.946;2023-07-20T04:34:34;17.70;99.90
25092;DHT22;13082;52.374;4.946;2023-07-20T04:37:04;17.70;99.90
25092;DHT22;13082;52.374;4.946;2023-07-20T04:39:29;17.60;99.90
25092;DHT22;13082;52.374;4.946;2023-07-20T04:41:56;17.60;99.90
25092;DHT22;13082;52.374;4.946;2023-07-20T04:44:21;17.60;99.90
25092;DHT22;13082;52.374;4.946;2023-07-20T04:46:47;17.60;99.90
25092;DHT22;13082;52.374;4.946;2023-07-20T04:49:13;17.70;99.90
25092;DHT22;13082;52.374;4.946;2023-07-20T04:51:39;17.80;99.90
25092;DHT22;13082;52.374;4.946;2023-07-20T04:54:04;17.80;99.90
25092;DHT22;13082;52.374;4.946;2023-07-20T04:56:30;17.70;99.90
25092;DHT22;13082;52.374;4.946;2023-07-20T04:58:56;17.70;99.90
25092;DHT22;13082;52.374;4.946;2023-07-20T05:01:23;17.70;99.90
25092;DHT22;13082;52.374;4.946;2023-07-20T05:03:48;17.80;99.90
25092;DHT22;13082;52.374;4.946;2023-07-20T05:06:15;17.70;99.90
25092;DHT22;13082;52.374;4.946;2023-07-20T05:08:40;17.80;99.90
25092;DHT22;13082;52.374;4.946;2023-07-20T05:11:06;17.90;99.90
25092;DHT22;13082;52.374;4.946;2023-07-20T05:13:32;17.70;99.90
25092;DHT22;13082;52.374;4.946;2023-07-20T05:15:58;17.80;99.90
25092;DHT22;13082;52.374;4.946;2023-07-20T05:18:24;17.70;99.90
25092;DHT22;13082;52.374;4.946;2023-07-20T05:20:50;17.70;99.90
25092;DHT22;13082;52.374;4.946;2023-07-20T05:23:17;17.60;99.90
25092;DHT22;13082;52.374;4.946;2023-07-20T05:25:43;17.70;99.90
25092;DHT22;13082;52.374;4.946;2023-07-20T05:28:09;17.70;99.90
25092;DHT22;13082;52.374;4.946;2023-07-20T05:30:35;17.70;99.90
25092;DHT22;13082;52.374;4.946;2023-07-20T05:33:00;17.80;99.90
25092;DHT22;13082;52.374;4.946;2023-07-20T05:35:27;17.90;99.90
25092;DHT22;13082;52.374;4.946;2023-07-20T05:37:52;17.90;99.90
25092;DHT22;13082;52.374;4.946;2023-07-20T05:40:18;18.00;99.90
25092;DHT22;13082;52.374;4.946;2023-07-20T05:42:47;18.10;99.90
25092;DHT22;13082;52.374;4.946;2023-07-20T05:45:14;18.10;99.90
25092;DHT22;13082;52.374;4.946;2023-07-20T05:47:41;18.10;99.90
25092;DHT22;13082;52.374;4.946;2023-07-20T05:50:07;18.10;99.90
25092;DHT22;13082;52.374;4.946;2023-07-20T05:52:33;18.20;99.90
25092;DHT22;13082;52.374;4.946;2023-07-20T05:54:59;18.10;99.90
25092;DHT22;13082;52.374;4.946;2023-07-20T05:57:24;18.10;99.90
25092;DHT22;13082;52.374;4.946;2023-07-20T05:59:50;18.10;99.90
25092;DHT22;13082;52.374;4.946;2023-07-20T06:02:16;18.20;99.90
25092;DHT22;13082;52.374;4.946;2023-07-20T06:04:42;18.20;99.90
25092;DHT22;13082;52.374;4.946;2023-07-20T06:07:07;18.30;99.90
25092;DHT22;13082;52.374;4.946;2023-07-20T06:09:33;18.30;99.90
25092;DHT22;13082;52.374;4.946;2023-07-20T06:11:59;18.30;99.90
25092;DHT22;13082;52.374;4.946;2023-07-20T06:14:25;18.30;99.90
25092;DHT22;13082;52.374;4.946;2023-07-20T06:16:50;18.30;99.90
25092;DHT22;13082;52.374;4.946;2023-07-20T06:19:16;18.30;99.90
25092;DHT22;13082;52.374;4.946;2023-07-20T06:21:43;18.30;99.90
25092;DHT22;13082;52.374;4.946;2023-07-20T06:24:09;18.20;99.90
25092;DHT22;13082;52.374;4.946;2023-07-20T06:26:34;18.20;99.90
25092;DHT22;13082;52.374;4.946;2023-07-20T06:29:06;18.20;99.90
25092;DHT22;13082;52.374;4.946;2023-07-20T06:31:35;18.30;99.90
25092;DHT22;13082;52.374;4.946;2023-07-20T06:34:01;18.30;99.90
25092;DHT22;13082;52.374;4.946;2023-07-20T06:36:27;18.30;99.90
25092;DHT22;13082;52.374;4.946;2023-07-20T06:38:52;18.30;99.90
25092;DHT22;13082;52.374;4.946;2023-07-20T06:41:18;18.40;99.90
25092;DHT22;13082;52.374;4.946;2023-07-20T06:43:44;18.50;99.90
25092;DHT22;13082;52.374;4.946;2023-07-20T06:46:10;18.40;99.90
25092;DHT22;13082;52.374;4.946;2023-07-20T06:48:36;18.30;99.90
25092;DHT22;13082;52.374;4.946;2023-07-20T06:51:01;18.40;99.90
25092;DHT22;13082;52.374;4.946;2023-07-20T06:53:28;18.50;99.90
25092;DHT22;13082;52.374;4.946;2023-07-20T06:55:54;18.50;99.90
25092;DHT22;13082;52.374;4.946;2023-07-20T06:58:19;18.50;99.90
25092;DHT22;13082;52.374;4.946;2023-07-20T07:00:47;18.60;99.90
25092;DHT22;13082;52.374;4.946;2023-07-20T07:03:12;18.60;99.90
25092;DHT22;13082;52.374;4.946;2023-07-20T07:05:38;18.70;99.90
25092;DHT22;13082;52.374;4.946;2023-07-20T07:08:04;18.70;99.90
25092;DHT22;13082;52.374;4.946;2023-07-20T07:10:30;18.70;99.90
25092;DHT22;13082;52.374;4.946;2023-07-20T07:12:56;18.70;99.90
25092;DHT22;13082;52.374;4.946;2023-07-20T07:15:21;18.80;99.90
25092;DHT22;13082;52.374;4.946;2023-07-20T07:17:47;18.90;99.90
25092;DHT22;13082;52.374;4.946;2023-07-20T07:20:13;18.90;99.90
25092;DHT22;13082;52.374;4.946;2023-07-20T07:22:39;19.00;99.90
25092;DHT22;13082;52.374;4.946;2023-07-20T07:25:05;19.00;99.90
25092;DHT22;13082;52.374;4.946;2023-07-20T07:27:30;19.00;99.90
25092;DHT22;13082;52.374;4.946;2023-07-20T07:29:56;19.10;99.90
25092;DHT22;13082;52.374;4.946;2023-07-20T07:32:22;19.20;99.90
25092;DHT22;13082;52.374;4.946;2023-07-20T07:34:47;19.20;99.90
25092;DHT22;13082;52.374;4.946;2023-07-20T07:37:14;19.20;99.90
25092;DHT22;13082;52.374;4.946;2023-07-20T07:39:39;19.30;99.90
25092;DHT22;13082;52.374;4.946;2023-07-20T07:42:05;19.30;99.90
25092;DHT22;13082;52.374;4.946;2023-07-20T07:44:31;19.30;99.90
25092;DHT22;13082;52.374;4.946;2023-07-20T07:46:57;19.30;99.90
25092;DHT22;13082;52.374;4.946;2023-07-20T07:49:23;19.30;99.90
25092;DHT22;13082;52.374;4.946;2023-07-20T07:51:48;19.20;99.90
25092;DHT22;13082;52.374;4.946;2023-07-20T07:54:14;19.20;99.90
25092;DHT22;13082;52.374;4.946;2023-07-20T07:56:40;19.30;99.90
25092;DHT22;13082;52.374;4.946;2023-07-20T07:59:06;19.30;99.90
25092;DHT22;13082;52.374;4.946;2023-07-20T08:01:32;19.40;99.90
25092;DHT22;13082;52.374;4.946;2023-07-20T08:03:58;19.30;99.90
25092;DHT22;13082;52.374;4.946;2023-07-20T08:06:23;19.20;99.90
25092;DHT22;13082;52.374;4.946;2023-07-20T08:08:49;19.10;99.90
25092;DHT22;13082;52.374;4.946;2023-07-20T08:11:15;19.20;99.90
25092;DHT22;13082;52.374;4.946;2023-07-20T08:13:43;19.40;99.90
25092;DHT22;13082;52.374;4.946;2023-07-20T08:16:09;19.30;99.90
25092;DHT22;13082;52.374;4.946;2023-07-20T08:18:34;19.40;99.90
25092;DHT22;13082;52.374;4.946;2023-07-20T08:21:00;19.60;99.90
25092;DHT22;13082;52.374;4.946;2023-07-20T08:23:26;19.70;99.90
25092;DHT22;13082;52.374;4.946;2023-07-20T08:25:53;19.70;99.90
25092;DHT22;13082;52.374;4.946;2023-07-20T08:28:19;19.50;99.90
25092;DHT22;13082;52.374;4.946;2023-07-20T08:30:46;19.50;99.90
25092;DHT22;13082;52.374;4.946;2023-07-20T08:33:21;19.60;99.90
25092;DHT22;13082;52.374;4.946;2023-07-20T08:35:48;19.70;99.90
25092;DHT22;13082;52.374;4.946;2023-07-20T08:38:14;19.70;99.90
25092;DHT22;13082;52.374;4.946;2023-07-20T08:40:42;19.80;99.90
25092;DHT22;13082;52.374;4.946;2023-07-20T08:43:09;19.90;99.90
25092;DHT22;13082;52.374;4.946;2023-07-20T08:45:36;19.90;99.90
25092;DHT22;13082;52.374;4.946;2023-07-20T08:48:05;20.10;99.90
25092;DHT22;13082;52.374;4.946;2023-07-20T08:50:31;20.20;99.90
25092;DHT22;13082;52.374;4.946;2023-07-20T08:52:58;20.10;99.90
25092;DHT22;13082;52.374;4.946;2023-07-20T08:55:26;20.20;99.90
25092;DHT22;13082;52.374;4.946;2023-07-20T08:57:56;20.20;99.90
25092;DHT22;13082;52.374;4.946;2023-07-20T09:00:23;20.30;99.90
25092;DHT22;13082;52.374;4.946;2023-07-20T09:02:51;20.30;99.90
25092;DHT22;13082;52.374;4.946;2023-07-20T09:05:18;20.20;99.90
25092;DHT22;13082;52.374;4.946;2023-07-20T09:07:44;20.20;99.90
25092;DHT22;13082;52.374;4.946;2023-07-20T09:10:10;20.10;99.90
25092;DHT22;13082;52.374;4.946;2023-07-20T09:12:38;20.20;99.90
25092;DHT22;13082;52.374;4.946;2023-07-20T09:15:05;20.30;99.90
25092;DHT22;13082;52.374;4.946;2023-07-20T09:17:31;20.40;99.90
25092;DHT22;13082;52.374;4.946;2023-07-20T09:19:57;20.40;99.90
25092;DHT22;13082;52.374;4.946;2023-07-20T09:22:30;20.30;99.90
25092;DHT22;13082;52.374;4.946;2023-07-20T09:24:56;20.20;99.90
25092;DHT22;13082;52.374;4.946;2023-07-20T09:27:22;20.40;99.90
25092;DHT22;13082;52.374;4.946;2023-07-20T09:29:49;20.50;99.90
25092;DHT22;13082;52.374;4.946;2023-07-20T09:32:18;20.50;99.90
25092;DHT22;13082;52.374;4.946;2023-07-20T09:34:46;20.50;99.90
25092;DHT22;13082;52.374;4.946;2023-07-20T09:37:12;20.50;99.90
25092;DHT22;13082;52.374;4.946;2023-07-20T09:39:45;20.60;99.90
25092;DHT22;13082;52.374;4.946;2023-07-20T09:42:12;20.70;99.90
25092;DHT22;13082;52.374;4.946;2023-07-20T09:44:38;20.60;99.90
25092;DHT22;13082;52.374;4.946;2023-07-20T09:47:05;20.50;99.90
25092;DHT22;13082;52.374;4.946;2023-07-20T09:49:31;20.30;99.90
25092;DHT22;13082;52.374;4.946;2023-07-20T09:51:58;20.40;99.90
25092;DHT22;13082;52.374;4.946;2023-07-20T09:54:26;20.30;99.90
25092;DHT22;13082;52.374;4.946;2023-07-20T09:56:54;20.40;99.90
25092;DHT22;13082;52.374;4.946;2023-07-20T09:59:19;20.30;99.90
25092;DHT22;13082;52.374;4.946;2023-07-20T10:01:46;20.40;99.90
25092;DHT22;13082;52.374;4.946;2023-07-20T10:04:13;20.40;99.90
25092;DHT22;13082;52.374;4.946;2023-07-20T10:06:42;20.40;99.90
25092;DHT22;13082;52.374;4.946;2023-07-20T10:09:10;20.30;99.90
25092;DHT22;13082;52.374;4.946;2023-07-20T10:11:41;20.40;99.90
25092;DHT22;13082;52.374;4.946;2023-07-20T10:14:08;20.50;99.90
25092;DHT22;13082;52.374;4.946;2023-07-20T10:16:39;20.50;99.90
25092;DHT22;13082;52.374;4.946;2023-07-20T10:19:44;20.50;99.90
25092;DHT22;13082;52.374;4.946;2023-07-20T10:22:19;20.30;99.90
25092;DHT22;13082;52.374;4.946;2023-07-20T10:24:46;20.30;99.90
25092;DHT22;13082;52.374;4.946;2023-07-20T10:27:15;20.20;99.90
25092;DHT22;13082;52.374;4.946;2023-07-20T10:29:41;20.20;99.90
25092;DHT22;13082;52.374;4.946;2023-07-20T10:32:08;20.30;99.90
25092;DHT22;13082;52.374;4.946;2023-07-20T10:34:34;20.40;99.90
25092;DHT22;13082;52.374;4.946;2023-07-20T10:37:00;20.20;99.90
25092;DHT22;13082;52.374;4.946;2023-07-20T10:39:32;20.30;99.90
25092;DHT22;13082;52.374;4.946;2023-07-20T10:42:08;20.40;99.90
25092;DHT22;13082;52.374;4.946;2023-07-20T10:44:37;20.40;99.90
25092;DHT22;13082;52.374;4.946;2023-07-20T10:47:08;20.40;99.90
25092;DHT22;13082;52.374;4.946;2023-07-20T10:49:34;20.30;99.90
25092;DHT22;13082;52.374;4.946;2023-07-20T10:52:04;20.30;99.90
25092;DHT22;13082;52.374;4.946;2023-07-20T10:56:57;20.50;99.90
25092;DHT22;13082;52.374;4.946;2023-07-20T11:01:49;20.60;99.90
25092;DHT22;13082;52.374;4.946;2023-07-20T11:04:15;20.70;99.90
25092;DHT22;13082;52.374;4.946;2023-07-20T11:06:47;20.80;99.90
25092;DHT22;13082;52.374;4.946;2023-07-20T11:09:22;20.80;99.90
25092;DHT22;13082;52.374;4.946;2023-07-20T11:12:12;20.90;99.90
25092;DHT22;13082;52.374;4.946;2023-07-20T11:14:55;20.90;99.90
25092;DHT22;13082;52.374;4.946;2023-07-20T11:17:29;20.90;99.90
25092;DHT22;13082;52.374;4.946;2023-07-20T11:19:59;20.90;99.90
25092;DHT22;13082;52.374;4.946;2023-07-20T11:22:27;21.00;99.90
25092;DHT22;13082;52.374;4.946;2023-07-20T11:24:56;21.00;99.90
25092;DHT22;13082;52.374;4.946;2023-07-20T11:27:21;21.00;99.90
25092;DHT22;13082;52.374;4.946;2023-07-20T11:29:50;21.00;99.90
25092;DHT22;13082;52.374;4.946;2023-07-20T11:32:22;20.90;99.90
25092;DHT22;13082;52.374;4.946;2023-07-20T11:34:48;21.00;99.90
25092;DHT22;13082;52.374;4.946;2023-07-20T11:37:14;21.00;99.90
25092;DHT22;13082;52.374;4.946;2023-07-20T11:39:40;21.00;99.90
25092;DHT22;13082;52.374;4.946;2023-07-20T11:42:06;21.00;99.90
25092;DHT22;13082;52.374;4.946;2023-07-20T11:44:34;21.10;99.90
25092;DHT22;13082;52.374;4.946;2023-07-20T11:47:07;20.90;99.90
25092;DHT22;13082;52.374;4.946;2023-07-20T11:49:37;20.80;99.90
25092;DHT22;13082;52.374;4.946;2023-07-20T11:52:07;20.80;99.90
25092;DHT22;13082;52.374;4.946;2023-07-20T11:54:34;20.60;99.90
25092;DHT22;13082;52.374;4.946;2023-07-20T11:57:01;20.70;99.90
25092;DHT22;13082;52.374;4.946;2023-07-20T11:59:27;20.90;99.90
25092;DHT22;13082;52.374;4.946;2023-07-20T12:01:53;21.00;99.90
25092;DHT22;13082;52.374;4.946;2023-07-20T12:04:18;21.10;99.90
25092;DHT22;13082;52.374;4.946;2023-07-20T12:06:45;21.10;99.90
25092;DHT22;13082;52.374;4.946;2023-07-20T12:09:14;21.10;99.90
25092;DHT22;13082;52.374;4.946;2023-07-20T12:11:43;21.00;99.90
25092;DHT22;13082;52.374;4.946;2023-07-20T12:14:09;20.90;99.90
25092;DHT22;13082;52.374;4.946;2023-07-20T12:16:36;20.80;99.90
25092;DHT22;13082;52.374;4.946;2023-07-20T12:19:05;21.00;99.90
25092;DHT22;13082;52.374;4.946;2023-07-20T12:21:31;21.20;99.90
25092;DHT22;13082;52.374;4.946;2023-07-20T12:23:58;21.40;99.90
25092;DHT22;13082;52.374;4.946;2023-07-20T12:26:25;21.70;99.90
25092;DHT22;13082;52.374;4.946;2023-07-20T12:28:51;21.90;99.90
25092;DHT22;13082;52.374;4.946;2023-07-20T12:31:17;21.90;99.90
25092;DHT22;13082;52.374;4.946;2023-07-20T12:33:43;21.90;99.90
25092;DHT22;13082;52.374;4.946;2023-07-20T12:36:09;21.90;99.90
25092;DHT22;13082;52.374;4.946;2023-07-20T12:38:36;21.80;99.90
25092;DHT22;13082;52.374;4.946;2023-07-20T12:41:02;21.90;99.90
25092;DHT22;13082;52.374;4.946;2023-07-20T12:43:28;21.90;99.90
25092;DHT22;13082;52.374;4.946;2023-07-20T12:45:55;21.80;99.90
25092;DHT22;13082;52.374;4.946;2023-07-20T12:48:21;21.80;99.90
25092;DHT22;13082;52.374;4.946;2023-07-20T12:50:47;21.70;99.90
25092;DHT22;13082;52.374;4.946;2023-07-20T12:53:12;21.80;99.90
25092;DHT22;13082;52.374;4.946;2023-07-20T12:55:38;21.80;99.90
25092;DHT22;13082;52.374;4.946;2023-07-20T12:58:04;21.80;99.90
25092;DHT22;13082;52.374;4.946;2023-07-20T13:00:30;21.80;99.90
25092;DHT22;13082;52.374;4.946;2023-07-20T13:02:57;21.90;99.90
25092;DHT22;13082;52.374;4.946;2023-07-20T13:05:23;22.10;99.90
25092;DHT22;13082;52.374;4.946;2023-07-20T13:07:49;22.10;99.90
25092;DHT22;13082;52.374;4.946;2023-07-20T13:10:14;22.10;99.90
25092;DHT22;13082;52.374;4.946;2023-07-20T13:12:40;22.20;99.90
25092;DHT22;13082;52.374;4.946;2023-07-20T13:15:07;22.10;99.90
25092;DHT22;13082;52.374;4.946;2023-07-20T13:17:38;22.00;99.90
25092;DHT22;13082;52.374;4.946;2023-07-20T13:20:08;21.90;99.90
25092;DHT22;13082;52.374;4.946;2023-07-20T13:22:35;21.90;99.90
25092;DHT22;13082;52.374;4.946;2023-07-20T13:25:01;21.70;99.90
25092;DHT22;13082;52.374;4.946;2023-07-20T13:27:27;21.30;99.90
25092;DHT22;13082;52.374;4.946;2023-07-20T13:29:53;21.20;99.90
25092;DHT22;13082;52.374;4.946;2023-07-20T13:32:18;21.00;99.90
25092;DHT22;13082;52.374;4.946;2023-07-20T13:34:44;20.90;99.90
25092;DHT22;13082;52.374;4.946;2023-07-20T13:37:10;20.90;99.90
25092;DHT22;13082;52.374;4.946;2023-07-20T13:39:37;21.00;99.90
25092;DHT22;13082;52.374;4.946;2023-07-20T13:42:04;21.00;99.90
25092;DHT22;13082;52.374;4.946;2023-07-20T13:44:31;21.00;99.90
25092;DHT22;13082;52.374;4.946;2023-07-20T13:46:57;21.10;99.90
25092;DHT22;13082;52.374;4.946;2023-07-20T13:49:23;21.10;99.90
25092;DHT22;13082;52.374;4.946;2023-07-20T13:51:49;20.90;99.90
25092;DHT22;13082;52.374;4.946;2023-07-20T13:54:14;20.80;99.90
25092;DHT22;13082;52.374;4.946;2023-07-20T13:56:40;20.60;99.90
25092;DHT22;13082;52.374;4.946;2023-07-20T13:59:06;20.60;99.90
25092;DHT22;13082;52.374;4.946;2023-07-20T14:01:31;20.60;99.90
25092;DHT22;13082;52.374;4.946;2023-07-20T14:03:59;20.80;99.90
25092;DHT22;13082;52.374;4.946;2023-07-20T14:06:25;21.00;99.90
25092;DHT22;13082;52.374;4.946;2023-07-20T14:08:51;21.10;99.90
25092;DHT22;13082;52.374;4.946;2023-07-20T14:11:18;21.10;99.90
25092;DHT22;13082;52.374;4.946;2023-07-20T14:13:44;21.00;99.90
25092;DHT22;13082;52.374;4.946;2023-07-20T14:16:09;21.10;99.90
25092;DHT22;13082;52.374;4.946;2023-07-20T14:18:35;21.10;99.90
25092;DHT22;13082;52.374;4.946;2023-07-20T14:21:00;20.80;99.90
25092;DHT22;13082;52.374;4.946;2023-07-20T14:23:28;20.60;99.90
25092;DHT22;13082;52.374;4.946;2023-07-20T14:25:54;20.60;99.90
25092;DHT22;13082;52.374;4.946;2023-07-20T14:28:20;20.70;99.90
25092;DHT22;13082;52.374;4.946;2023-07-20T14:30:45;20.90;99.90
25092;DHT22;13082;52.374;4.946;2023-07-20T14:33:11;21.10;99.90
25092;DHT22;13082;52.374;4.946;2023-07-20T14:35:37;21.20;99.90
25092;DHT22;13082;52.374;4.946;2023-07-20T14:38:02;21.30;99.90
25092;DHT22;13082;52.374;4.946;2023-07-20T14:40:28;21.30;99.90
25092;DHT22;13082;52.374;4.946;2023-07-20T14:42:55;21.30;99.90
25092;DHT22;13082;52.374;4.946;2023-07-20T14:45:21;21.30;99.90
25092;DHT22;13082;52.374;4.946;2023-07-20T14:47:46;21.40;99.90
25092;DHT22;13082;52.374;4.946;2023-07-20T14:50:19;21.50;99.90
25092;DHT22;13082;52.374;4.946;2023-07-20T14:52:45;21.60;99.90
25092;DHT22;13082;52.374;4.946;2023-07-20T14:55:10;21.70;99.90
25092;DHT22;13082;52.374;4.946;2023-07-20T14:57:36;21.70;99.90
25092;DHT22;13082;52.374;4.946;2023-07-20T15:00:02;21.70;99.90
25092;DHT22;13082;52.374;4.946;2023-07-20T15:02:32;21.80;99.90
25092;DHT22;13082;52.374;4.946;2023-07-20T15:04:58;21.80;99.90
25092;DHT22;13082;52.374;4.946;2023-07-20T15:07:23;21.80;99.90
25092;DHT22;13082;52.374;4.946;2023-07-20T15:09:49;21.80;99.90
25092;DHT22;13082;52.374;4.946;2023-07-20T15:12:14;21.90;99.90
25092;DHT22;13082;52.374;4.946;2023-07-20T15:14:41;21.90;99.90
25092;DHT22;13082;52.374;4.946;2023-07-20T15:17:11;21.90;99.90
25092;DHT22;13082;52.374;4.946;2023-07-20T15:19:37;21.60;99.90
25092;DHT22;13082;52.374;4.946;2023-07-20T15:22:04;21.40;99.90
25092;DHT22;13082;52.374;4.946;2023-07-20T15:24:30;21.40;99.90
25092;DHT22;13082;52.374;4.946;2023-07-20T15:26:56;21.40;99.90
25092;DHT22;13082;52.374;4.946;2023-07-20T15:29:23;21.40;99.90
25092;DHT22;13082;52.374;4.946;2023-07-20T15:31:48;21.50;99.90
25092;DHT22;13082;52.374;4.946;2023-07-20T15:34:14;21.50;99.90
25092;DHT22;13082;52.374;4.946;2023-07-20T15:36:41;21.50;99.90
25092;DHT22;13082;52.374;4.946;2023-07-20T15:39:10;21.40;99.90